ENLE

Ekofisk Oil Platform

Ekofisk, Norway
METAR ENLE 260350Z 04024KT CAVOK 19/05 Q1026 W10/S3
Observed Flight Rules
May-26 @ 03:50 UTC (32 minutes ago) Visual Flight Rules
Wind Visibility Clouds
40° at 24 knots 10,000+ meters
  • Clear skies
Temperatures Readings
Current 19°C / 66°F
Dewpoint 5°C / 41°F
Humidity 40%
Altimeter 30.3" Hg
Pressure 1026 hPa
Elevation 3
METAR ENLE 260350Z 04024KT CAVOK 19/05 Q1026 W10/S3
Observed Flight Rules
May-26 @ 03:50 UTC
(32 minutes ago)
VFR
Wind Visibility
40° at 24 knots 10,000+ meters
Clouds
  • Clear skies
Temperature Dewpoint
19°C / 66°F 5°C / 41°F
Humidity Altimeter Pressure
40% 30.3" Hg 1026 hPa